Time;durP1;ratioP1;P1;durP2;ratioP2;P2;SDS_P1;SDS_P2;PMS_P1;PMS_P2;Temp;Humidity;BMP_temperature;BMP_pressure;BME280_temperature;BME280_humidity;BME280_pressure;Samples;Min_cycle;Max_cycle;Signal;HPM_P1;HPM_P2
2022/01/25 00:25:57;;;;;;;59.60;43.55;;;5.00;99.90;;;;;;5077877;28;20498;-73
2022/01/25 00:31:09;;;;;;;56.45;42.17;;;4.90;99.90;;;;;;5078093;28;20398;-73
2022/01/25 00:33:38;;;;;;;61.72;43.53;;;4.90;99.90;;;;;;5078019;28;20048;-73
2022/01/25 00:36:05;;;;;;;58.50;43.55;;;4.90;99.90;;;;;;5077908;28;20036;-73
2022/01/25 00:38:32;;;;;;;56.17;41.75;;;4.90;99.90;;;;;;5077759;28;20036;-73
2022/01/25 00:40:57;;;;;;;58.70;43.28;;;4.90;99.90;;;;;;5077696;28;20044;-73
2022/01/25 00:43:25;;;;;;;59.28;43.55;;;4.90;99.90;;;;;;5077655;28;20040;-73
2022/01/25 00:45:54;;;;;;;57.05;43.05;;;4.90;99.90;;;;;;5077598;28;20097;-73
2022/01/25 00:48:30;;;;;;;59.88;44.90;;;4.90;99.90;;;;;;5077715;28;20094;-73
2022/01/25 00:51:17;;;;;;;60.97;43.65;;;4.80;99.90;;;;;;5077431;28;20031;-73
2022/01/25 00:56:22;;;;;;;61.65;44.85;;;4.70;99.90;;;;;;5077599;28;20048;-73
2022/01/25 00:58:48;;;;;;;59.40;43.17;;;4.70;99.90;;;;;;5077372;28;20036;-73
2022/01/25 01:01:14;;;;;;;62.92;44.25;;;4.70;99.90;;;;;;5077264;28;20039;-73
2022/01/25 01:03:39;;;;;;;62.42;43.72;;;4.70;99.90;;;;;;5077271;28;20036;-73
2022/01/25 01:06:06;;;;;;;60.25;42.55;;;4.70;99.90;;;;;;5077497;28;20127;-73
2022/01/25 01:08:33;;;;;;;62.78;44.20;;;4.80;99.90;;;;;;5077128;28;20409;-73
2022/01/25 01:11:01;;;;;;;60.03;44.50;;;4.80;99.90;;;;;;5077179;28;20036;-73
2022/01/25 01:30:11;;;;;;;59.78;42.80;;;4.80;99.90;;;;;;5076970;28;20052;-73
2022/01/25 01:35:38;;;;;;;60.30;42.90;;;4.80;99.90;;;;;;5076227;28;20044;-73
2022/01/25 01:38:19;;;;;;;62.53;44.83;;;4.80;99.90;;;;;;5076724;28;20097;-73
2022/01/25 01:43:34;;;;;;;63.65;44.95;;;4.70;99.90;;;;;;5076726;28;20043;-73
2022/01/25 01:48:54;;;;;;;58.80;42.33;;;4.70;99.90;;;;;;5076319;28;20058;-73
2022/01/25 01:51:29;;;;;;;;;;;4.70;99.90;;;;;;5076764;28;20081;-73
2022/01/25 01:53:58;;;;;;;63.13;42.63;;;4.60;99.90;;;;;;5076314;28;19920;-73
2022/01/25 01:56:24;;;;;;;60.78;43.40;;;4.60;99.90;;;;;;5076694;28;20062;-73
2022/01/25 01:58:52;;;;;;;59.67;42.90;;;4.60;99.90;;;;;;5076113;28;20497;-73
2022/01/25 02:01:18;;;;;;;61.38;43.63;;;4.60;99.90;;;;;;5076093;28;20036;-73
2022/01/25 02:03:44;;;;;;;59.88;42.50;;;4.60;99.90;;;;;;5076071;28;20508;-73
2022/01/25 02:06:10;;;;;;;61.55;44.25;;;4.60;99.90;;;;;;5076230;28;20032;-73
2022/01/25 02:08:36;;;;;;;59.05;43.05;;;4.60;99.90;;;;;;5076000;28;20575;-73
2022/01/25 02:11:03;;;;;;;64.47;43.75;;;4.60;99.90;;;;;;5076029;28;20039;-73
2022/01/25 02:13:28;;;;;;;61.38;44.40;;;4.60;99.90;;;;;;5076178;28;20042;-73
2022/01/25 02:15:56;;;;;;;62.70;44.90;;;4.50;99.90;;;;;;5075817;28;20036;-73
2022/01/25 02:23:34;;;;;;;65.32;45.95;;;4.50;99.90;;;;;;5075728;28;20085;-73
2022/01/25 02:26:03;;;;;;;66.32;44.58;;;4.40;99.90;;;;;;5075611;28;20040;-73
2022/01/25 02:28:33;;;;;;;63.95;45.20;;;4.50;99.90;;;;;;5075814;28;20071;-73
2022/01/25 02:31:00;;;;;;;62.45;44.53;;;4.40;99.90;;;;;;5059080;28;20043;-73
2022/01/25 02:33:26;;;;;;;62.40;43.38;;;4.40;99.90;;;;;;5075560;28;20085;-73
2022/01/25 02:35:53;;;;;;;62.92;44.10;;;4.50;99.90;;;;;;5075496;28;20051;-73
2022/01/25 02:38:25;;;;;;;62.58;43.65;;;4.50;99.90;;;;;;5075324;28;20125;-73
2022/01/25 02:40:50;;;;;;;62.35;45.03;;;4.50;99.90;;;;;;5075439;28;20056;-73
2022/01/25 02:43:18;;;;;;;61.00;43.35;;;4.50;99.90;;;;;;5075746;28;20048;-73
2022/01/25 02:45:51;;;;;;;62.75;44.90;;;4.40;99.90;;;;;;5058296;28;20117;-73
2022/01/25 02:48:29;;;;;;;65.85;44.90;;;4.40;99.90;;;;;;5075382;28;20040;-73
2022/01/25 02:51:00;;;;;;;65.75;45.45;;;4.40;99.90;;;;;;5075304;28;20055;-73
2022/01/25 02:53:26;;;;;;;66.22;45.85;;;4.40;99.90;;;;;;5075708;28;20040;-73
2022/01/25 02:55:52;;;;;;;63.33;44.17;;;4.30;99.90;;;;;;5075305;28;20050;-73
2022/01/25 02:58:18;;;;;;;67.35;46.35;;;4.30;99.90;;;;;;5075171;28;20036;-73
2022/01/25 03:00:43;;;;;;;65.78;44.38;;;4.30;99.90;;;;;;5075453;28;20044;-73
2022/01/25 03:03:09;;;;;;;61.85;45.08;;;4.30;99.90;;;;;;5075252;28;20512;-73
2022/01/25 03:05:35;;;;;;;67.65;45.47;;;4.30;99.90;;;;;;5075070;28;20090;-73
2022/01/25 03:08:01;;;;;;;63.15;43.72;;;4.30;99.90;;;;;;5075027;28;20048;-73
2022/01/25 03:10:36;;;;;;;69.72;46.40;;;4.30;99.90;;;;;;5075349;28;20036;-73
2022/01/25 03:13:03;;;;;;;63.00;44.97;;;4.30;99.90;;;;;;5058620;28;20428;-73
2022/01/25 03:15:54;;;;;;;65.72;45.13;;;4.20;99.90;;;;;;5074978;28;20454;-73
2022/01/25 03:18:54;;;;;;;69.03;47.00;;;4.20;99.90;;;;;;5074919;28;20046;-73
2022/01/25 03:23:51;;;;;;;67.65;45.00;;;4.20;99.90;;;;;;5075183;28;20109;-73
2022/01/25 03:26:17;;;;;;;63.17;43.55;;;4.30;99.90;;;;;;5075055;28;20440;-73
2022/01/25 03:28:43;;;;;;;60.72;43.22;;;4.20;99.90;;;;;;5058466;28;20557;-73
2022/01/25 03:31:09;;;;;;;64.35;44.85;;;4.30;99.90;;;;;;5075165;28;20120;-73
2022/01/25 03:33:35;;;;;;;65.68;45.92;;;4.20;99.90;;;;;;5074884;28;20093;-73
2022/01/25 03:36:01;;;;;;;64.38;44.17;;;4.20;99.90;;;;;;5075094;28;20417;-73
2022/01/25 03:38:26;;;;;;;60.95;44.00;;;4.20;99.90;;;;;;5074959;28;20039;-73
2022/01/25 03:40:52;;;;;;;63.13;43.92;;;4.30;99.90;;;;;;5074753;28;20518;-73
2022/01/25 03:43:19;;;;;;;63.22;42.90;;;4.30;99.90;;;;;;5074803;28;20043;-73
2022/01/25 03:45:57;;;;;;;65.07;43.17;;;4.40;99.90;;;;;;5058073;28;20076;-73
2022/01/25 03:50:50;;;;;;;66.45;44.10;;;4.40;99.90;;;;;;5074678;28;20127;-73
2022/01/25 03:53:19;;;;;;;66.47;44.75;;;4.40;99.90;;;;;;5074916;28;20517;-73
2022/01/25 03:55:46;;;;;;;65.18;44.90;;;4.50;99.90;;;;;;5074729;28;20036;-73
2022/01/25 03:58:12;;;;;;;65.28;44.20;;;4.40;99.90;;;;;;5078035;28;20386;-73
2022/01/25 04:00:38;;;;;;;64.47;45.00;;;4.40;99.90;;;;;;5078410;28;20544;-73
2022/01/25 04:05:48;;;;;;;67.47;47.03;;;4.40;99.90;;;;;;5078377;28;20079;-73
2022/01/25 04:08:15;;;;;;;68.53;46.42;;;4.40;99.90;;;;;;5078287;28;20036;-73
2022/01/25 04:10:41;;;;;;;66.13;45.80;;;4.40;99.90;;;;;;5078301;28;20044;-73
2022/01/25 04:13:07;;;;;;;61.75;43.92;;;4.40;99.90;;;;;;5078494;28;20034;-73
2022/01/25 04:15:33;;;;;;;64.53;44.97;;;4.40;99.90;;;;;;5078150;28;20119;-73
2022/01/25 04:18:24;;;;;;;64.57;44.40;;;4.40;99.90;;;;;;5078347;28;20130;-73
2022/01/25 04:21:41;;;;;;;62.03;43.20;;;4.40;99.90;;;;;;5078148;28;20525;-73
2022/01/25 04:26:26;;;;;;;68.57;45.25;;;4.30;99.90;;;;;;5077913;28;20055;-73
2022/01/25 04:28:52;;;;;;;66.43;44.85;;;4.30;99.90;;;;;;5077985;28;20035;-73
2022/01/25 04:31:19;;;;;;;63.97;44.30;;;4.30;99.90;;;;;;5077933;28;20050;-73
2022/01/25 04:34:06;;;;;;;67.90;45.83;;;4.20;99.90;;;;;;5061188;28;20047;-73
2022/01/25 04:53:07;;;;;;;66.40;44.40;;;4.30;99.90;;;;;;5077538;28;20054;-73
2022/01/25 04:55:41;;;;;;;64.65;43.88;;;4.30;99.90;;;;;;5078064;28;20119;-73
2022/01/25 04:58:14;;;;;;;61.97;43.35;;;4.40;99.90;;;;;;5078101;28;20040;-73
2022/01/25 05:00:40;;;;;;;62.45;42.70;;;4.40;99.90;;;;;;5060739;28;20122;-73
2022/01/25 05:03:15;;;;;;;62.97;43.35;;;4.30;99.90;;;;;;5077933;28;20126;-73
2022/01/25 05:06:16;;;;;;;65.30;44.85;;;4.30;99.90;;;;;;5077325;28;20069;-73
2022/01/25 05:08:39;;;;;;;65.47;45.65;;;4.30;99.90;;;;;;5072067;28;20498;-73
2022/01/25 05:11:10;;;;;;;65.95;43.40;;;4.30;99.90;;;;;;5060581;28;20123;-73
2022/01/25 05:16:27;;;;;;;69.22;44.80;;;4.30;99.90;;;;;;5077121;28;20057;-73
2022/01/25 05:19:03;;;;;;;67.45;44.88;;;4.30;99.90;;;;;;5060360;28;20036;-73
2022/01/25 05:24:13;;;;;;;59.53;42.53;;;4.30;99.90;;;;;;5076838;28;20494;-73
2022/01/25 05:26:39;;;;;;;62.13;42.00;;;4.30;99.90;;;;;;5076847;28;20040;-73
2022/01/25 05:29:05;;;;;;;64.20;43.80;;;4.30;99.90;;;;;;5076779;28;20039;-73
2022/01/25 05:31:30;;;;;;;64.53;41.20;;;4.30;99.90;;;;;;5076815;28;20089;-73
2022/01/25 05:33:56;;;;;;;64.88;42.92;;;4.30;99.90;;;;;;5076708;28;20036;-73
2022/01/25 05:36:22;;;;;;;65.30;44.10;;;4.30;99.90;;;;;;5076710;28;20028;-73
2022/01/25 05:38:47;;;;;;;64.65;44.25;;;4.30;99.90;;;;;;5077023;28;20052;-73
2022/01/25 05:41:14;;;;;;;62.13;41.80;;;4.30;99.90;;;;;;5076508;28;20513;-73
2022/01/25 05:44:12;;;;;;;66.38;43.58;;;4.30;99.90;;;;;;5076590;28;20047;-73
2022/01/25 05:46:46;;;;;;;65.32;43.42;;;4.30;99.90;;;;;;5076791;28;20052;-73
2022/01/25 05:49:11;;;;;;;62.90;43.33;;;4.30;99.90;;;;;;5076488;28;20071;-73
2022/01/25 05:51:37;;;;;;;61.67;41.38;;;4.30;99.90;;;;;;5076317;28;20070;-73
2022/01/25 05:54:02;;;;;;;65.63;43.65;;;4.30;99.90;;;;;;5076321;28;20093;-73
2022/01/25 05:56:28;;;;;;;67.97;44.47;;;4.30;99.90;;;;;;5076204;28;20044;-73
2022/01/25 05:58:54;;;;;;;63.80;42.85;;;4.30;99.90;;;;;;5076228;28;20173;-73
2022/01/25 06:01:19;;;;;;;65.05;43.90;;;4.30;99.90;;;;;;5059595;28;20123;-73
2022/01/25 06:03:45;;;;;;;65.00;43.95;;;4.30;99.90;;;;;;5076119;28;20043;-73
2022/01/25 06:06:11;;;;;;;66.93;44.08;;;4.20;99.90;;;;;;5075973;28;20040;-73
2022/01/25 06:08:37;;;;;;;64.70;44.35;;;4.30;99.90;;;;;;5076160;28;20036;-73
2022/01/25 06:11:03;;;;;;;64.18;43.15;;;4.30;99.90;;;;;;5075986;28;20482;-73
2022/01/25 06:13:28;;;;;;;68.72;44.60;;;4.30;99.90;;;;;;5059541;28;20044;-73
2022/01/25 06:15:54;;;;;;;63.17;42.80;;;4.30;99.90;;;;;;5075879;28;20048;-73
2022/01/25 06:18:20;;;;;;;63.78;42.97;;;4.30;99.90;;;;;;5076065;28;20036;-73
2022/01/25 06:20:45;;;;;;;66.28;44.00;;;4.30;99.90;;;;;;5058547;28;20099;-73
2022/01/25 06:23:11;;;;;;;65.70;43.75;;;4.40;99.90;;;;;;5075819;28;20067;-73
2022/01/25 06:25:36;;;;;;;65.78;44.78;;;4.40;99.90;;;;;;5075647;28;20131;-73
2022/01/25 06:28:02;;;;;;;70.05;44.83;;;4.40;99.90;;;;;;5075631;28;20036;-73
2022/01/25 06:30:27;;;;;;;63.83;43.47;;;4.40;99.90;;;;;;5075664;28;20081;-73
2022/01/25 06:32:53;;;;;;;64.72;43.22;;;4.40;99.90;;;;;;5075614;28;20133;-73
2022/01/25 06:35:19;;;;;;;64.97;42.88;;;4.40;99.90;;;;;;5075502;28;20039;-73
2022/01/25 06:37:45;;;;;;;65.38;43.70;;;4.50;99.90;;;;;;5075309;28;20126;-73
2022/01/25 06:40:12;;;;;;;65.90;44.25;;;4.50;99.90;;;;;;5075803;28;20040;-73
2022/01/25 06:42:38;;;;;;;64.38;43.30;;;4.50;99.90;;;;;;5075422;28;20036;-73
2022/01/25 06:45:11;;;;;;;63.13;43.03;;;4.50;99.90;;;;;;5058592;28;20067;-73
2022/01/25 06:47:36;;;;;;;62.83;43.45;;;4.50;99.90;;;;;;5075417;28;20048;-73
2022/01/25 06:50:03;;;;;;;64.00;42.03;;;4.50;99.90;;;;;;5075631;28;20055;-73
2022/01/25 06:52:29;;;;;;;71.57;44.78;;;4.50;99.90;;;;;;5075350;28;20036;-73
2022/01/25 06:54:54;;;;;;;65.32;43.60;;;4.50;99.90;;;;;;5075311;28;20178;-73
2022/01/25 06:57:20;;;;;;;63.08;42.50;;;4.50;99.90;;;;;;5075117;28;20040;-73
2022/01/25 06:59:45;;;;;;;64.97;43.53;;;4.50;99.90;;;;;;5075208;28;20044;-73
2022/01/25 07:02:12;;;;;;;61.78;42.42;;;4.50;99.90;;;;;;5075190;28;20054;-73
2022/01/25 07:04:38;;;;;;;65.72;44.13;;;4.50;99.90;;;;;;5075669;28;20119;-73
2022/01/25 07:07:04;;;;;;;66.70;44.58;;;4.50;99.90;;;;;;5058590;28;20126;-73
2022/01/25 07:09:30;;;;;;;63.28;42.83;;;4.50;99.90;;;;;;5075309;28;20047;-73
2022/01/25 07:11:56;;;;;;;61.95;42.63;;;4.50;99.90;;;;;;5075047;28;20044;-73
2022/01/25 07:14:21;;;;;;;62.90;43.55;;;4.50;99.90;;;;;;5075113;28;20050;-73
2022/01/25 07:16:47;;;;;;;62.13;41.92;;;4.50;99.90;;;;;;5075030;28;20040;-73
2022/01/25 07:19:13;;;;;;;65.43;43.60;;;4.50;99.90;;;;;;5075339;28;20055;-73
2022/01/25 07:21:39;;;;;;;67.63;45.63;;;4.50;99.90;;;;;;5075003;28;20434;-73
2022/01/25 07:24:05;;;;;;;68.60;45.15;;;4.50;99.90;;;;;;5075000;28;20036;-73
2022/01/25 07:26:31;;;;;;;67.03;44.00;;;4.40;99.90;;;;;;5074872;28;20036;-73
2022/01/25 07:28:57;;;;;;;69.78;45.88;;;4.40;99.90;;;;;;5075033;28;20047;-73
2022/01/25 07:31:22;;;;;;;67.57;42.90;;;4.30;99.90;;;;;;5076001;28;20032;-73
2022/01/25 07:33:48;;;;;;;67.57;44.28;;;4.30;99.90;;;;;;5078889;28;20040;-73
2022/01/25 07:36:14;;;;;;;67.30;44.83;;;4.30;99.90;;;;;;5078873;28;20047;-72
2022/01/25 07:38:39;;;;;;;66.07;43.55;;;4.30;99.90;;;;;;5079231;28;20040;-72
2022/01/25 07:41:05;;;;;;;73.85;45.50;;;4.30;99.90;;;;;;5078893;28;20522;-72
2022/01/25 07:43:30;;;;;;;67.85;44.25;;;4.30;99.90;;;;;;5078903;28;20137;-73
2022/01/25 07:45:58;;;;;;;61.15;41.05;;;4.30;99.90;;;;;;5079028;28;20040;-73
2022/01/25 07:48:24;;;;;;;65.07;42.33;;;4.30;99.90;;;;;;5079068;28;20127;-72
2022/01/25 07:50:50;;;;;;;65.18;42.08;;;4.30;99.90;;;;;;5078833;28;20424;-73
2022/01/25 07:53:16;;;;;;;66.45;43.05;;;4.30;99.90;;;;;;5079112;28;20050;-72
2022/01/25 07:55:41;;;;;;;64.95;43.78;;;4.30;99.90;;;;;;5078620;28;20047;-72
2022/01/25 07:58:07;;;;;;;62.90;42.53;;;4.30;99.90;;;;;;5078490;28;20134;-72
2022/01/25 08:00:33;;;;;;;64.60;42.60;;;4.30;99.90;;;;;;5078587;28;20044;-72
2022/01/25 08:02:58;;;;;;;61.70;41.13;;;4.30;99.90;;;;;;5078448;28;20117;-72
2022/01/25 08:05:26;;;;;;;65.20;41.75;;;4.40;99.90;;;;;;5078418;28;20126;-72
2022/01/25 08:07:55;;;;;;;63.25;43.00;;;4.40;99.90;;;;;;5078246;28;20486;-72
2022/01/25 08:10:22;;;;;;;65.47;42.83;;;4.40;99.90;;;;;;5078292;28;20036;-72
2022/01/25 08:12:47;;;;;;;61.83;41.45;;;4.40;99.90;;;;;;5078184;28;20040;-72
2022/01/25 08:15:15;;;;;;;67.18;42.80;;;4.50;99.90;;;;;;5078171;28;20113;-72
2022/01/25 08:17:41;;;;;;;64.18;42.30;;;4.40;99.90;;;;;;5078085;28;20065;-72
2022/01/25 08:20:07;;;;;;;64.45;42.53;;;4.50;99.90;;;;;;5078368;28;20087;-72
2022/01/25 08:22:33;;;;;;;64.10;41.53;;;4.50;99.90;;;;;;5078030;28;20533;-72
2022/01/25 08:24:59;;;;;;;63.97;42.70;;;4.50;99.90;;;;;;5077971;28;20169;-72
2022/01/25 08:27:25;;;;;;;62.22;41.45;;;4.50;99.90;;;;;;5078156;28;20545;-72
2022/01/25 08:29:52;;;;;;;66.53;40.85;;;4.50;99.90;;;;;;5077969;28;20119;-73
2022/01/25 08:32:18;;;;;;;65.03;41.15;;;4.50;99.90;;;;;;5077886;28;20406;-72
2022/01/25 08:34:44;;;;;;;65.53;41.40;;;4.50;99.90;;;;;;5077868;28;20089;-72
2022/01/25 08:37:10;;;;;;;66.22;42.63;;;4.50;99.90;;;;;;5077613;28;20040;-72
2022/01/25 08:39:35;;;;;;;64.30;41.92;;;4.50;99.90;;;;;;5095923;28;20131;-72
2022/01/25 08:42:03;;;;;;;72.38;43.72;;;4.50;99.90;;;;;;5061108;28;20055;-72
2022/01/25 08:44:29;;;;;;;69.15;42.42;;;4.50;99.90;;;;;;5077263;28;20040;-72
2022/01/25 08:46:55;;;;;;;63.80;42.17;;;4.50;99.90;;;;;;5077548;28;20448;-71
2022/01/25 08:49:21;;;;;;;68.35;43.22;;;4.50;99.90;;;;;;5077609;28;20040;-72
2022/01/25 08:51:48;;;;;;;65.13;42.53;;;4.50;99.90;;;;;;5077793;28;20081;-72
2022/01/25 08:54:14;;;;;;;63.95;41.92;;;4.50;99.90;;;;;;5078680;28;20385;-72
2022/01/25 08:56:43;;;;;;;67.43;42.63;;;4.50;99.90;;;;;;5077693;28;20112;-71
2022/01/25 08:59:09;;;;;;;63.63;42.00;;;4.50;99.90;;;;;;5077388;28;20036;-71
2022/01/25 09:01:35;;;;;;;65.05;42.28;;;4.50;99.90;;;;;;5077646;28;20036;-71
2022/01/25 09:04:01;;;;;;;60.20;40.47;;;4.40;99.90;;;;;;5077510;28;20051;-72
2022/01/25 09:06:28;;;;;;;66.57;43.15;;;4.40;99.90;;;;;;5061097;28;20048;-72
2022/01/25 09:09:01;;;;;;;68.78;43.47;;;4.40;99.90;;;;;;5077497;28;20040;-72
2022/01/25 09:11:27;;;;;;;69.00;42.88;;;4.40;99.90;;;;;;5077256;28;20044;-72
2022/01/25 09:13:52;;;;;;;63.05;40.90;;;4.40;99.90;;;;;;5077402;28;20127;-72
2022/01/25 09:16:18;;;;;;;68.70;43.05;;;4.40;99.90;;;;;;5077047;28;20040;-71
2022/01/25 09:18:43;;;;;;;68.93;42.42;;;4.40;99.90;;;;;;5077323;28;20036;-72
2022/01/25 09:21:09;;;;;;;65.75;42.03;;;4.40;99.90;;;;;;5077250;28;20440;-71
2022/01/25 09:23:35;;;;;;;65.45;43.13;;;4.50;99.90;;;;;;5077031;28;20044;-71
2022/01/25 09:26:02;;;;;;;65.88;42.67;;;4.50;99.90;;;;;;5076875;28;20046;-72
2022/01/25 09:28:28;;;;;;;64.40;41.50;;;4.40;99.90;;;;;;5076764;28;20082;-72
2022/01/25 09:30:54;;;;;;;66.40;41.30;;;4.50;99.90;;;;;;5076836;28;20036;-72
2022/01/25 09:33:24;;;;;;;67.13;42.45;;;4.50;99.90;;;;;;5076788;28;20036;-72
2022/01/25 09:35:51;;;;;;;67.70;41.47;;;4.50;99.90;;;;;;5076936;28;20052;-73
2022/01/25 09:38:17;;;;;;;66.00;42.03;;;4.50;99.90;;;;;;5076488;28;20044;-73
2022/01/25 09:40:43;;;;;;;65.45;41.65;;;4.40;99.90;;;;;;5076624;28;20046;-72
2022/01/25 09:43:09;;;;;;;68.88;42.50;;;4.40;99.90;;;;;;5076587;28;20040;-72
2022/01/25 09:45:36;;;;;;;69.63;43.60;;;4.40;99.90;;;;;;5076349;28;20044;-72
2022/01/25 09:48:03;;;;;;;69.47;42.08;;;4.30;99.90;;;;;;5076475;28;20064;-72
2022/01/25 09:50:28;;;;;;;71.20;43.17;;;4.30;99.90;;;;;;5076660;28;20040;-72
2022/01/25 09:52:54;;;;;;;70.03;44.08;;;4.30;99.90;;;;;;5076375;28;20050;-72
2022/01/25 09:55:26;;;;;;;65.85;41.88;;;4.30;99.90;;;;;;5075398;28;20044;-72
2022/01/25 09:57:52;;;;;;;67.63;41.95;;;4.30;99.90;;;;;;5076572;28;20036;-72
2022/01/25 10:00:20;;;;;;;70.38;44.13;;;4.30;99.90;;;;;;5076188;28;20471;-72
2022/01/25 10:02:50;;;;;;;66.65;42.20;;;4.30;99.90;;;;;;5076233;28;20075;-72
2022/01/25 10:05:34;;;;;;;68.80;42.75;;;4.30;99.90;;;;;;5076613;28;20046;-72
2022/01/25 10:08:09;;;;;;;70.47;43.47;;;4.40;99.90;;;;;;5076049;28;20036;-72
2022/01/25 10:10:40;;;;;;;69.10;43.25;;;4.40;99.90;;;;;;5076889;28;20360;-72
2022/01/25 10:13:20;;;;;;;72.65;43.50;;;4.40;99.90;;;;;;5076006;28;20451;-72
2022/01/25 10:15:47;;;;;;;68.85;41.83;;;4.40;99.90;;;;;;5076190;28;20044;-72
2022/01/25 10:18:13;;;;;;;68.00;41.85;;;4.40;99.90;;;;;;5075799;28;20043;-72
2022/01/25 10:20:50;;;;;;;69.47;42.22;;;4.40;99.90;;;;;;5075858;28;20145;-71
2022/01/25 10:23:21;;;;;;;72.28;43.15;;;4.40;99.90;;;;;;5076076;28;20051;-72
2022/01/25 10:25:48;;;;;;;73.78;43.20;;;4.40;99.90;;;;;;5075812;28;20078;-73
2022/01/25 10:28:20;;;;;;;72.88;44.58;;;4.40;99.90;;;;;;5075779;28;20072;-72
2022/01/25 10:30:55;;;;;;;70.57;44.30;;;4.40;99.90;;;;;;5076718;28;20040;-72
2022/01/25 10:33:28;;;;;;;74.38;44.05;;;4.40;99.90;;;;;;5075976;28;20039;-72
2022/01/25 10:35:57;;;;;;;75.03;44.25;;;4.50;99.90;;;;;;5075617;28;20047;-72
2022/01/25 10:38:30;;;;;;;69.30;43.38;;;4.50;99.90;;;;;;5058722;28;20044;-72
2022/01/25 10:41:03;;;;;;;71.35;43.47;;;4.50;99.90;;;;;;5075855;28;20047;-73
2022/01/25 10:43:31;;;;;;;70.00;43.90;;;4.50;99.90;;;;;;5075673;28;20044;-72
2022/01/25 10:46:06;;;;;;;72.60;43.83;;;4.50;99.90;;;;;;5075479;28;20054;-72
2022/01/25 10:48:32;;;;;;;72.13;43.40;;;4.50;99.90;;;;;;5075448;28;20051;-72
2022/01/25 10:51:08;;;;;;;69.90;43.38;;;4.50;99.90;;;;;;5075500;28;20097;-74
2022/01/25 10:53:34;;;;;;;71.47;44.15;;;4.50;99.90;;;;;;5058836;28;20047;-73
2022/01/25 10:56:01;;;;;;;70.60;43.85;;;4.50;99.90;;;;;;5059222;28;20509;-72
2022/01/25 10:58:28;;;;;;;79.30;43.35;;;4.60;99.90;;;;;;5075259;28;20052;-71
2022/01/25 11:00:55;;;;;;;70.60;44.90;;;4.50;99.90;;;;;;5075145;28;20047;-72
2022/01/25 11:03:30;;;;;;;70.57;44.28;;;4.60;99.90;;;;;;5075200;28;20054;-72
2022/01/25 11:05:56;;;;;;;72.68;44.53;;;4.50;99.90;;;;;;5074903;28;20071;-72
2022/01/25 11:08:25;;;;;;;72.40;44.05;;;4.50;99.90;;;;;;5075364;28;20106;-72
2022/01/25 11:10:54;;;;;;;75.38;44.50;;;4.50;99.90;;;;;;5058607;28;20119;-72
2022/01/25 11:16:00;;;;;;;80.15;47.97;;;4.50;99.90;;;;;;5075316;28;20044;-72
2022/01/25 11:18:26;;;;;;;74.45;45.50;;;4.50;99.90;;;;;;5093400;28;20090;-72
2022/01/25 11:20:53;;;;;;;75.43;45.80;;;4.40;99.90;;;;;;5058578;28;20044;-72
2022/01/25 11:23:19;;;;;;;73.68;45.10;;;4.50;99.90;;;;;;5075293;28;20494;-72
2022/01/25 11:25:46;;;;;;;75.55;45.78;;;4.50;99.90;;;;;;5075758;28;20048;-72
2022/01/25 11:28:13;;;;;;;74.60;45.30;;;4.50;99.90;;;;;;5074903;28;20508;-72
2022/01/25 11:30:40;;;;;;;75.03;45.20;;;4.60;99.90;;;;;;5058428;28;20040;-72
2022/01/25 11:33:09;;;;;;;75.35;44.25;;;4.60;99.90;;;;;;5074884;28;20084;-72
2022/01/25 11:35:35;;;;;;;74.07;43.63;;;4.60;99.90;;;;;;5074826;28;20055;-72
2022/01/25 11:38:02;;;;;;;73.88;45.67;;;4.60;99.90;;;;;;5074686;28;20085;-72
2022/01/25 11:40:38;;;;;;;77.15;44.72;;;4.60;99.90;;;;;;5074850;28;20051;-72
2022/01/25 11:43:13;;;;;;;71.30;43.08;;;4.60;99.90;;;;;;5075178;28;20047;-72
2022/01/25 11:45:50;;;;;;;72.15;44.00;;;4.60;99.90;;;;;;5074800;28;20048;-72
2022/01/25 11:48:23;;;;;;;73.70;45.17;;;4.60;99.90;;;;;;5074945;28;20075;-72
2022/01/25 11:50:48;;;;;;;75.07;43.87;;;4.70;99.90;;;;;;5074801;28;20036;-73
2022/01/25 11:53:17;;;;;;;70.35;43.17;;;4.60;99.90;;;;;;5074721;28;20044;-73
2022/01/25 11:55:48;;;;;;;70.50;43.25;;;4.70;99.90;;;;;;5074988;28;20112;-72
2022/01/25 11:58:34;;;;;;;73.45;44.10;;;4.70;99.90;;;;;;5074635;28;20040;-72
2022/01/25 12:01:06;;;;;;;70.97;44.00;;;4.70;99.90;;;;;;5074159;28;20575;-73
2022/01/25 12:03:35;;;;;;;73.63;41.97;;;4.60;99.90;;;;;;5074629;28;20048;-73
2022/01/25 12:06:07;;;;;;;72.85;44.03;;;4.60;99.90;;;;;;5074574;28;20119;-73
2022/01/25 12:11:43;;;;;;;73.07;43.53;;;4.60;99.90;;;;;;5074512;28;20047;-72
2022/01/25 12:14:24;;;;;;;72.88;42.85;;;4.60;99.90;;;;;;5074528;28;20051;-73
2022/01/25 12:16:54;;;;;;;73.03;43.85;;;4.60;99.90;;;;;;5074860;28;20043;-72
2022/01/25 12:20:06;;;;;;;74.85;43.47;;;4.60;99.90;;;;;;5060857;28;20490;-72
2022/01/25 12:22:36;;;;;;;76.35;45.53;;;4.70;99.90;;;;;;5073384;28;20052;-72
2022/01/25 12:25:28;;;;;;;73.70;44.92;;;4.60;99.90;;;;;;5077976;28;20094;-73
2022/01/25 12:28:09;;;;;;;70.15;42.53;;;4.60;99.90;;;;;;5077989;28;20036;-73
2022/01/25 12:30:40;;;;;;;75.80;44.00;;;4.50;99.90;;;;;;5078041;28;20040;-73
2022/01/25 12:33:28;;;;;;;77.53;45.35;;;4.50;99.90;;;;;;5077896;28;20452;-73
2022/01/25 12:36:13;;;;;;;70.93;43.53;;;4.50;99.90;;;;;;5078940;28;20048;-73
2022/01/25 12:38:43;;;;;;;74.10;43.20;;;4.50;99.90;;;;;;5077555;28;20051;-73
2022/01/25 12:41:15;;;;;;;71.68;42.95;;;4.60;99.90;;;;;;5078071;28;20485;-73
2022/01/25 12:43:45;;;;;;;73.35;43.70;;;4.50;99.90;;;;;;5077771;28;20058;-73
2022/01/25 12:46:18;;;;;;;71.47;42.72;;;4.60;99.90;;;;;;5061047;28;20490;-73
2022/01/25 12:49:05;;;;;;;68.05;42.20;;;4.60;99.90;;;;;;5077946;28;20153;-73
2022/01/25 12:51:35;;;;;;;71.03;40.63;;;4.60;99.90;;;;;;5077627;28;20090;-73
2022/01/25 12:54:07;;;;;;;77.40;43.80;;;4.60;99.90;;;;;;5077578;28;20115;-73
2022/01/25 12:56:35;;;;;;;71.50;41.10;;;4.60;99.90;;;;;;5060817;28;20036;-73
2022/01/25 12:59:07;;;;;;;73.75;42.50;;;4.50;99.90;;;;;;5060746;28;20071;-73
2022/01/25 13:01:36;;;;;;;70.60;41.75;;;4.50;99.90;;;;;;5077661;28;20075;-73
2022/01/25 13:04:04;;;;;;;68.93;41.88;;;4.50;99.90;;;;;;5077358;28;20410;-73
2022/01/25 13:06:32;;;;;;;72.57;43.42;;;4.60;99.90;;;;;;5077146;28;20555;-73
2022/01/25 13:09:24;;;;;;;73.18;43.80;;;4.50;99.90;;;;;;5077271;28;20051;-73
2022/01/25 13:17:04;;;;;;;74.22;41.35;;;4.50;99.90;;;;;;5077293;28;20075;-73
2022/01/25 13:19:42;;;;;;;69.80;41.13;;;4.60;99.90;;;;;;5077352;28;20032;-73
2022/01/25 13:22:12;;;;;;;72.32;41.85;;;4.60;99.90;;;;;;5077331;28;20051;-73
2022/01/25 13:24:55;;;;;;;73.95;41.40;;;4.60;99.90;;;;;;5077126;28;20190;-72
2022/01/25 13:27:21;;;;;;;74.65;42.22;;;4.60;99.90;;;;;;5077099;28;20440;-72
2022/01/25 13:32:41;;;;;;;69.72;40.40;;;4.60;99.90;;;;;;5076771;28;20459;-72
2022/01/25 13:35:23;;;;;;;71.85;41.85;;;4.60;99.90;;;;;;5076699;28;20056;-72
2022/01/25 13:38:03;;;;;;;69.90;40.92;;;4.70;99.90;;;;;;5076544;28;20036;-72
2022/01/25 13:40:44;;;;;;;74.32;42.13;;;4.70;99.90;;;;;;5076611;28;20048;-72
2022/01/25 13:46:08;;;;;;;68.97;40.65;;;4.70;99.90;;;;;;5006070;28;20077;-72
2022/01/25 13:48:35;;;;;;;71.50;40.95;;;4.70;99.90;;;;;;5059829;28;20040;-72
2022/01/25 13:51:12;;;;;;;67.25;40.15;;;4.70;99.90;;;;;;5076408;28;20036;-73
2022/01/25 13:53:39;;;;;;;74.35;42.03;;;4.70;99.90;;;;;;5076720;28;20048;-74
2022/01/25 13:56:08;;;;;;;67.35;40.80;;;4.70;99.90;;;;;;5076352;28;20047;-74
2022/01/25 13:58:37;;;;;;;72.63;41.72;;;4.70;99.90;;;;;;5076532;28;20040;-73
2022/01/25 14:01:05;;;;;;;74.82;42.03;;;4.70;99.90;;;;;;5059641;28;20047;-73
2022/01/25 14:03:33;;;;;;;75.50;41.45;;;4.60;99.90;;;;;;5076219;28;20044;-73
2022/01/25 14:05:59;;;;;;;74.00;41.97;;;4.60;99.90;;;;;;5076181;28;20044;-73
2022/01/25 14:08:52;;;;;;;72.53;41.80;;;4.60;99.90;;;;;;5076224;28;20028;-73
2022/01/25 14:11:31;;;;;;;73.50;42.38;;;4.60;99.90;;;;;;5073167;28;20056;-74
2022/01/25 14:21:40;;;;;;;72.50;42.33;;;4.60;99.90;;;;;;5075878;28;20506;-73
2022/01/25 14:25:08;;;;;;;74.68;42.38;;;4.60;99.90;;;;;;5075721;28;20087;-74
2022/01/25 14:27:49;;;;;;;78.75;43.10;;;4.60;99.90;;;;;;5075939;28;20074;-73
2022/01/25 14:30:16;;;;;;;70.55;40.38;;;4.60;99.90;;;;;;5059621;28;20036;-73
2022/01/25 14:32:42;;;;;;;76.70;42.03;;;4.60;99.90;;;;;;5075666;28;20123;-73
2022/01/25 14:35:10;;;;;;;71.95;41.03;;;4.60;99.90;;;;;;5075602;28;20127;-73
2022/01/25 14:37:47;;;;;;;69.47;41.30;;;4.60;99.90;;;;;;5075675;28;20093;-73
2022/01/25 14:40:15;;;;;;;69.43;40.67;;;4.70;99.90;;;;;;5075368;28;20433;-73
2022/01/25 14:42:42;;;;;;;70.07;40.80;;;4.60;99.90;;;;;;5075498;28;20052;-73
2022/01/25 14:45:19;;;;;;;72.57;41.75;;;4.70;99.90;;;;;;5075388;28;20426;-73
2022/01/25 14:47:48;;;;;;;75.78;42.55;;;4.60;99.90;;;;;;5075335;28;20115;-73